sensor_id;sensor_type;location;lat;lon;timestamp;P1;durP1;ratioP1;P2;durP2;ratioP2
52724;SDS011;38621;52.830;6.914;2024-03-02T00:01:05;100.10;;;96.75;;
52724;SDS011;38621;52.830;6.914;2024-03-02T00:03:31;101.40;;;97.97;;
52724;SDS011;38621;52.830;6.914;2024-03-02T00:05:57;94.75;;;91.50;;
52724;SDS011;38621;52.830;6.914;2024-03-02T00:08:23;103.47;;;100.03;;
52724;SDS011;38621;52.830;6.914;2024-03-02T00:10:50;115.97;;;112.03;;
52724;SDS011;38621;52.830;6.914;2024-03-02T00:13:18;104.47;;;100.93;;
52724;SDS011;38621;52.830;6.914;2024-03-02T00:15:53;91.05;;;88.00;;
52724;SDS011;38621;52.830;6.914;2024-03-02T00:18:41;79.40;;;76.63;;
52724;SDS011;38621;52.830;6.914;2024-03-02T00:21:06;102.00;;;98.57;;
52724;SDS011;38621;52.830;6.914;2024-03-02T00:23:34;93.15;;;89.97;;
52724;SDS011;38621;52.830;6.914;2024-03-02T00:26:00;123.60;;;118.50;;
52724;SDS011;38621;52.830;6.914;2024-03-02T00:28:27;92.70;;;89.55;;
52724;SDS011;38621;52.830;6.914;2024-03-02T00:33:30;75.45;;;72.70;;
52724;SDS011;38621;52.830;6.914;2024-03-02T00:36:10;92.93;;;89.75;;
52724;SDS011;38621;52.830;6.914;2024-03-02T00:38:42;102.32;;;98.80;;
52724;SDS011;38621;52.830;6.914;2024-03-02T00:41:17;103.43;;;99.97;;
52724;SDS011;38621;52.830;6.914;2024-03-02T00:43:53;120.10;;;116.03;;
52724;SDS011;38621;52.830;6.914;2024-03-02T00:46:23;121.00;;;116.93;;
52724;SDS011;38621;52.830;6.914;2024-03-02T00:48:55;117.00;;;113.03;;
52724;SDS011;38621;52.830;6.914;2024-03-02T00:51:23;91.25;;;88.10;;
52724;SDS011;38621;52.830;6.914;2024-03-02T00:53:55;95.32;;;92.03;;
52724;SDS011;38621;52.830;6.914;2024-03-02T00:56:23;78.57;;;75.82;;
52724;SDS011;38621;52.830;6.914;2024-03-02T00:58:49;86.15;;;83.10;;
52724;SDS011;38621;52.830;6.914;2024-03-02T01:01:16;106.90;;;103.28;;
52724;SDS011;38621;52.830;6.914;2024-03-02T01:03:42;116.07;;;112.13;;
52724;SDS011;38621;52.830;6.914;2024-03-02T01:06:08;71.20;;;68.75;;
52724;SDS011;38621;52.830;6.914;2024-03-02T01:08:37;107.28;;;103.65;;
52724;SDS011;38621;52.830;6.914;2024-03-02T01:11:03;79.90;;;77.00;;
52724;SDS011;38621;52.830;6.914;2024-03-02T01:13:30;92.28;;;89.13;;
52724;SDS011;38621;52.830;6.914;2024-03-02T01:15:56;78.25;;;75.40;;
52724;SDS011;38621;52.830;6.914;2024-03-02T01:18:22;109.32;;;105.57;;
52724;SDS011;38621;52.830;6.914;2024-03-02T01:20:48;96.60;;;93.15;;
52724;SDS011;38621;52.830;6.914;2024-03-02T01:23:19;85.60;;;82.57;;
52724;SDS011;38621;52.830;6.914;2024-03-02T01:25:46;109.75;;;105.90;;
52724;SDS011;38621;52.830;6.914;2024-03-02T01:28:12;101.90;;;98.45;;
52724;SDS011;38621;52.830;6.914;2024-03-02T01:30:39;80.18;;;77.22;;
52724;SDS011;38621;52.830;6.914;2024-03-02T01:33:04;80.95;;;78.18;;
52724;SDS011;38621;52.830;6.914;2024-03-02T01:35:31;110.60;;;106.85;;
52724;SDS011;38621;52.830;6.914;2024-03-02T01:37:57;87.47;;;84.43;;
52724;SDS011;38621;52.830;6.914;2024-03-02T01:40:23;77.55;;;74.88;;
52724;SDS011;38621;52.830;6.914;2024-03-02T01:42:52;57.85;;;55.78;;
52724;SDS011;38621;52.830;6.914;2024-03-02T01:45:23;80.82;;;78.13;;
52724;SDS011;38621;52.830;6.914;2024-03-02T01:47:49;47.97;;;46.22;;
52724;SDS011;38621;52.830;6.914;2024-03-02T01:50:15;74.28;;;71.68;;
52724;SDS011;38621;52.830;6.914;2024-03-02T01:52:49;38.20;;;36.88;;
52724;SDS011;38621;52.830;6.914;2024-03-02T01:55:15;60.05;;;57.92;;
52724;SDS011;38621;52.830;6.914;2024-03-02T01:57:40;72.57;;;70.10;;
52724;SDS011;38621;52.830;6.914;2024-03-02T02:00:06;87.25;;;83.85;;
52724;SDS011;38621;52.830;6.914;2024-03-02T02:02:33;97.10;;;93.57;;
52724;SDS011;38621;52.830;6.914;2024-03-02T02:04:59;46.97;;;45.33;;
52724;SDS011;38621;52.830;6.914;2024-03-02T02:07:25;77.88;;;75.10;;
52724;SDS011;38621;52.830;6.914;2024-03-02T02:09:50;50.80;;;49.05;;
52724;SDS011;38621;52.830;6.914;2024-03-02T02:12:16;63.28;;;61.03;;
52724;SDS011;38621;52.830;6.914;2024-03-02T02:14:48;73.65;;;71.07;;
52724;SDS011;38621;52.830;6.914;2024-03-02T02:17:15;76.40;;;73.85;;
52724;SDS011;38621;52.830;6.914;2024-03-02T02:19:41;82.70;;;79.88;;
52724;SDS011;38621;52.830;6.914;2024-03-02T02:22:08;85.35;;;82.40;;
52724;SDS011;38621;52.830;6.914;2024-03-02T02:24:34;68.45;;;66.05;;
52724;SDS011;38621;52.830;6.914;2024-03-02T02:27:00;86.55;;;83.70;;
52724;SDS011;38621;52.830;6.914;2024-03-02T02:29:26;95.25;;;92.03;;
52724;SDS011;38621;52.830;6.914;2024-03-02T02:31:52;94.75;;;91.53;;
52724;SDS011;38621;52.830;6.914;2024-03-02T02:34:17;83.93;;;81.00;;
52724;SDS011;38621;52.830;6.914;2024-03-02T02:36:43;66.38;;;64.10;;
52724;SDS011;38621;52.830;6.914;2024-03-02T02:39:13;94.47;;;91.22;;
52724;SDS011;38621;52.830;6.914;2024-03-02T02:41:40;216.10;;;206.32;;
52724;SDS011;38621;52.830;6.914;2024-03-02T02:44:06;83.07;;;80.20;;
52724;SDS011;38621;52.830;6.914;2024-03-02T02:46:32;102.32;;;98.88;;
52724;SDS011;38621;52.830;6.914;2024-03-02T02:48:57;62.03;;;59.95;;
52724;SDS011;38621;52.830;6.914;2024-03-02T02:51:23;96.88;;;93.63;;
52724;SDS011;38621;52.830;6.914;2024-03-02T02:53:50;95.13;;;91.70;;
52724;SDS011;38621;52.830;6.914;2024-03-02T02:56:16;76.88;;;74.25;;
52724;SDS011;38621;52.830;6.914;2024-03-02T02:58:42;98.00;;;94.60;;
52724;SDS011;38621;52.830;6.914;2024-03-02T03:01:08;49.83;;;47.97;;
52724;SDS011;38621;52.830;6.914;2024-03-02T03:03:34;93.78;;;90.47;;
52724;SDS011;38621;52.830;6.914;2024-03-02T03:05:59;85.55;;;82.57;;
52724;SDS011;38621;52.830;6.914;2024-03-02T03:08:25;83.03;;;80.13;;
52724;SDS011;38621;52.830;6.914;2024-03-02T03:10:51;51.72;;;49.80;;
52724;SDS011;38621;52.830;6.914;2024-03-02T03:13:16;89.65;;;86.63;;
52724;SDS011;38621;52.830;6.914;2024-03-02T03:15:42;57.22;;;55.28;;
52724;SDS011;38621;52.830;6.914;2024-03-02T03:18:08;147.20;;;141.65;;
52724;SDS011;38621;52.830;6.914;2024-03-02T03:20:35;50.75;;;48.90;;
52724;SDS011;38621;52.830;6.914;2024-03-02T03:23:01;50.58;;;48.70;;
52724;SDS011;38621;52.830;6.914;2024-03-02T03:25:29;43.05;;;41.50;;
52724;SDS011;38621;52.830;6.914;2024-03-02T03:27:55;29.67;;;28.58;;
52724;SDS011;38621;52.830;6.914;2024-03-02T03:30:20;40.30;;;38.85;;
52724;SDS011;38621;52.830;6.914;2024-03-02T03:32:46;67.03;;;64.60;;
52724;SDS011;38621;52.830;6.914;2024-03-02T03:35:13;42.38;;;40.60;;
52724;SDS011;38621;52.830;6.914;2024-03-02T03:37:40;69.30;;;66.63;;
52724;SDS011;38621;52.830;6.914;2024-03-02T03:40:06;42.33;;;40.65;;
52724;SDS011;38621;52.830;6.914;2024-03-02T03:42:38;42.20;;;40.75;;
52724;SDS011;38621;52.830;6.914;2024-03-02T03:45:04;41.28;;;39.85;;
52724;SDS011;38621;52.830;6.914;2024-03-02T03:47:31;33.33;;;32.13;;
52724;SDS011;38621;52.830;6.914;2024-03-02T03:49:57;29.63;;;28.50;;
52724;SDS011;38621;52.830;6.914;2024-03-02T03:52:23;55.72;;;53.55;;
52724;SDS011;38621;52.830;6.914;2024-03-02T03:54:49;104.20;;;99.85;;
52724;SDS011;38621;52.830;6.914;2024-03-02T03:57:15;35.08;;;33.70;;
52724;SDS011;38621;52.830;6.914;2024-03-02T03:59:41;46.80;;;45.13;;
52724;SDS011;38621;52.830;6.914;2024-03-02T04:02:07;60.05;;;57.95;;
52724;SDS011;38621;52.830;6.914;2024-03-02T04:04:34;83.35;;;80.47;;
52724;SDS011;38621;52.830;6.914;2024-03-02T04:07:00;98.10;;;94.68;;
52724;SDS011;38621;52.830;6.914;2024-03-02T04:09:25;62.75;;;60.60;;
52724;SDS011;38621;52.830;6.914;2024-03-02T04:11:51;64.15;;;61.90;;
52724;SDS011;38621;52.830;6.914;2024-03-02T04:14:17;107.22;;;103.65;;
52724;SDS011;38621;52.830;6.914;2024-03-02T04:16:43;68.53;;;66.18;;
52724;SDS011;38621;52.830;6.914;2024-03-02T04:19:08;110.80;;;106.95;;
52724;SDS011;38621;52.830;6.914;2024-03-02T04:21:34;127.43;;;123.18;;
52724;SDS011;38621;52.830;6.914;2024-03-02T04:23:59;105.85;;;102.22;;
52724;SDS011;38621;52.830;6.914;2024-03-02T04:26:25;104.32;;;100.75;;
52724;SDS011;38621;52.830;6.914;2024-03-02T04:28:52;94.10;;;90.95;;
52724;SDS011;38621;52.830;6.914;2024-03-02T04:31:18;106.78;;;103.07;;
52724;SDS011;38621;52.830;6.914;2024-03-02T04:33:44;135.88;;;131.35;;
52724;SDS011;38621;52.830;6.914;2024-03-02T04:36:10;189.88;;;183.00;;
52724;SDS011;38621;52.830;6.914;2024-03-02T04:38:36;150.00;;;145.02;;
52724;SDS011;38621;52.830;6.914;2024-03-02T04:41:03;112.93;;;108.97;;
52724;SDS011;38621;52.830;6.914;2024-03-02T04:43:32;94.13;;;91.00;;
52724;SDS011;38621;52.830;6.914;2024-03-02T04:45:58;142.55;;;137.65;;
52724;SDS011;38621;52.830;6.914;2024-03-02T04:48:25;121.82;;;117.78;;
52724;SDS011;38621;52.830;6.914;2024-03-02T04:50:50;140.85;;;136.07;;
52724;SDS011;38621;52.830;6.914;2024-03-02T04:53:16;158.75;;;153.25;;
52724;SDS011;38621;52.830;6.914;2024-03-02T04:55:42;144.23;;;139.48;;
52724;SDS011;38621;52.830;6.914;2024-03-02T04:58:07;111.88;;;108.05;;
52724;SDS011;38621;52.830;6.914;2024-03-02T05:00:33;127.75;;;123.55;;
52724;SDS011;38621;52.830;6.914;2024-03-02T05:02:59;94.95;;;91.80;;
52724;SDS011;38621;52.830;6.914;2024-03-02T05:05:26;140.35;;;135.70;;
52724;SDS011;38621;52.830;6.914;2024-03-02T05:07:52;144.57;;;139.77;;
52724;SDS011;38621;52.830;6.914;2024-03-02T05:10:17;147.35;;;142.45;;
52724;SDS011;38621;52.830;6.914;2024-03-02T05:12:43;137.73;;;133.07;;
52724;SDS011;38621;52.830;6.914;2024-03-02T05:15:13;102.50;;;99.10;;
52724;SDS011;38621;52.830;6.914;2024-03-02T05:17:40;135.07;;;130.60;;
52724;SDS011;38621;52.830;6.914;2024-03-02T05:20:09;122.57;;;118.43;;
52724;SDS011;38621;52.830;6.914;2024-03-02T05:22:35;120.43;;;116.32;;
52724;SDS011;38621;52.830;6.914;2024-03-02T05:25:03;138.32;;;133.70;;
52724;SDS011;38621;52.830;6.914;2024-03-02T05:27:29;178.40;;;172.50;;
52724;SDS011;38621;52.830;6.914;2024-03-02T05:29:56;158.63;;;153.35;;
52724;SDS011;38621;52.830;6.914;2024-03-02T05:32:23;143.52;;;138.82;;
52724;SDS011;38621;52.830;6.914;2024-03-02T05:34:48;163.02;;;157.68;;
52724;SDS011;38621;52.830;6.914;2024-03-02T05:37:16;141.43;;;136.63;;
52724;SDS011;38621;52.830;6.914;2024-03-02T05:39:42;140.48;;;135.85;;
52724;SDS011;38621;52.830;6.914;2024-03-02T05:42:08;162.60;;;157.18;;
52724;SDS011;38621;52.830;6.914;2024-03-02T05:44:35;156.85;;;151.63;;
52724;SDS011;38621;52.830;6.914;2024-03-02T05:47:01;135.27;;;130.55;;
52724;SDS011;38621;52.830;6.914;2024-03-02T05:49:27;143.38;;;138.63;;
52724;SDS011;38621;52.830;6.914;2024-03-02T05:51:52;140.95;;;136.13;;
52724;SDS011;38621;52.830;6.914;2024-03-02T05:54:18;132.52;;;128.07;;
52724;SDS011;38621;52.830;6.914;2024-03-02T05:56:44;136.20;;;131.70;;
52724;SDS011;38621;52.830;6.914;2024-03-02T05:59:09;141.05;;;136.30;;
52724;SDS011;38621;52.830;6.914;2024-03-02T06:01:45;164.27;;;158.93;;
52724;SDS011;38621;52.830;6.914;2024-03-02T06:04:17;152.27;;;147.25;;
52724;SDS011;38621;52.830;6.914;2024-03-02T06:06:43;135.15;;;130.70;;
52724;SDS011;38621;52.830;6.914;2024-03-02T06:09:09;158.57;;;153.32;;
52724;SDS011;38621;52.830;6.914;2024-03-02T06:11:38;151.23;;;146.18;;
52724;SDS011;38621;52.830;6.914;2024-03-02T06:14:05;162.82;;;157.38;;
52724;SDS011;38621;52.830;6.914;2024-03-02T06:16:34;124.85;;;120.72;;
52724;SDS011;38621;52.830;6.914;2024-03-02T06:19:00;164.95;;;159.55;;
52724;SDS011;38621;52.830;6.914;2024-03-02T06:21:26;177.27;;;171.32;;
52724;SDS011;38621;52.830;6.914;2024-03-02T06:23:53;158.70;;;153.48;;
52724;SDS011;38621;52.830;6.914;2024-03-02T06:26:19;149.68;;;144.70;;
52724;SDS011;38621;52.830;6.914;2024-03-02T06:28:45;165.68;;;160.07;;
52724;SDS011;38621;52.830;6.914;2024-03-02T06:31:11;136.65;;;131.98;;
52724;SDS011;38621;52.830;6.914;2024-03-02T06:33:37;152.88;;;147.82;;
52724;SDS011;38621;52.830;6.914;2024-03-02T06:36:03;186.73;;;180.20;;
52724;SDS011;38621;52.830;6.914;2024-03-02T06:38:29;138.50;;;133.93;;
52724;SDS011;38621;52.830;6.914;2024-03-02T06:40:57;143.32;;;138.50;;
52724;SDS011;38621;52.830;6.914;2024-03-02T06:43:23;165.38;;;159.57;;
52724;SDS011;38621;52.830;6.914;2024-03-02T06:45:52;149.25;;;144.18;;
52724;SDS011;38621;52.830;6.914;2024-03-02T06:48:18;175.88;;;169.98;;
52724;SDS011;38621;52.830;6.914;2024-03-02T06:50:48;200.55;;;194.00;;
52724;SDS011;38621;52.830;6.914;2024-03-02T06:53:15;175.20;;;169.13;;
52724;SDS011;38621;52.830;6.914;2024-03-02T06:55:46;140.00;;;135.32;;
52724;SDS011;38621;52.830;6.914;2024-03-02T06:58:12;139.95;;;135.25;;
52724;SDS011;38621;52.830;6.914;2024-03-02T07:00:38;165.52;;;160.02;;
52724;SDS011;38621;52.830;6.914;2024-03-02T07:03:04;155.13;;;149.93;;
52724;SDS011;38621;52.830;6.914;2024-03-02T07:05:29;182.40;;;176.35;;
52724;SDS011;38621;52.830;6.914;2024-03-02T07:07:55;167.68;;;161.82;;
52724;SDS011;38621;52.830;6.914;2024-03-02T07:10:21;203.05;;;196.25;;
52724;SDS011;38621;52.830;6.914;2024-03-02T07:12:46;214.73;;;207.48;;
52724;SDS011;38621;52.830;6.914;2024-03-02T07:15:12;191.07;;;184.75;;
52724;SDS011;38621;52.830;6.914;2024-03-02T07:17:55;140.00;;;135.27;;
52724;SDS011;38621;52.830;6.914;2024-03-02T07:20:21;180.52;;;174.50;;
52724;SDS011;38621;52.830;6.914;2024-03-02T07:22:47;210.30;;;203.35;;
52724;SDS011;38621;52.830;6.914;2024-03-02T07:25:13;157.68;;;152.32;;
52724;SDS011;38621;52.830;6.914;2024-03-02T07:27:39;170.38;;;164.60;;
52724;SDS011;38621;52.830;6.914;2024-03-02T07:30:05;171.70;;;166.02;;
52724;SDS011;38621;52.830;6.914;2024-03-02T07:32:31;154.23;;;149.13;;
52724;SDS011;38621;52.830;6.914;2024-03-02T07:34:57;193.25;;;186.80;;
52724;SDS011;38621;52.830;6.914;2024-03-02T07:37:23;183.70;;;177.52;;
52724;SDS011;38621;52.830;6.914;2024-03-02T07:39:50;183.85;;;177.70;;
52724;SDS011;38621;52.830;6.914;2024-03-02T07:42:16;197.15;;;190.65;;
52724;SDS011;38621;52.830;6.914;2024-03-02T07:44:45;186.27;;;179.95;;
52724;SDS011;38621;52.830;6.914;2024-03-02T07:47:11;163.75;;;158.27;;
52724;SDS011;38621;52.830;6.914;2024-03-02T07:49:37;179.82;;;173.90;;
52724;SDS011;38621;52.830;6.914;2024-03-02T07:52:03;197.60;;;190.82;;
52724;SDS011;38621;52.830;6.914;2024-03-02T07:54:29;144.65;;;139.75;;
52724;SDS011;38621;52.830;6.914;2024-03-02T07:56:54;164.40;;;158.90;;
52724;SDS011;38621;52.830;6.914;2024-03-02T07:59:20;157.27;;;152.15;;
52724;SDS011;38621;52.830;6.914;2024-03-02T08:01:48;162.57;;;157.20;;
52724;SDS011;38621;52.830;6.914;2024-03-02T08:04:14;150.35;;;145.35;;
52724;SDS011;38621;52.830;6.914;2024-03-02T08:06:40;160.95;;;155.75;;
52724;SDS011;38621;52.830;6.914;2024-03-02T08:09:05;167.00;;;161.55;;
52724;SDS011;38621;52.830;6.914;2024-03-02T08:11:35;170.77;;;165.10;;
52724;SDS011;38621;52.830;6.914;2024-03-02T08:14:01;225.02;;;217.52;;
52724;SDS011;38621;52.830;6.914;2024-03-02T08:16:26;199.90;;;193.45;;
52724;SDS011;38621;52.830;6.914;2024-03-02T08:18:52;158.85;;;153.50;;
52724;SDS011;38621;52.830;6.914;2024-03-02T08:21:18;179.82;;;173.98;;
52724;SDS011;38621;52.830;6.914;2024-03-02T08:23:44;192.10;;;185.70;;
52724;SDS011;38621;52.830;6.914;2024-03-02T08:26:10;129.18;;;124.95;;
52724;SDS011;38621;52.830;6.914;2024-03-02T08:28:37;103.40;;;99.70;;
52724;SDS011;38621;52.830;6.914;2024-03-02T08:31:03;122.05;;;117.93;;
52724;SDS011;38621;52.830;6.914;2024-03-02T08:33:29;137.27;;;132.75;;
52724;SDS011;38621;52.830;6.914;2024-03-02T08:35:55;113.18;;;109.38;;
52724;SDS011;38621;52.830;6.914;2024-03-02T08:38:21;178.32;;;172.52;;
52724;SDS011;38621;52.830;6.914;2024-03-02T08:40:47;112.88;;;109.15;;
52724;SDS011;38621;52.830;6.914;2024-03-02T08:43:14;93.72;;;90.55;;
52724;SDS011;38621;52.830;6.914;2024-03-02T08:45:40;172.10;;;166.43;;
52724;SDS011;38621;52.830;6.914;2024-03-02T08:48:09;186.70;;;180.55;;
52724;SDS011;38621;52.830;6.914;2024-03-02T08:50:35;192.60;;;186.18;;
52724;SDS011;38621;52.830;6.914;2024-03-02T08:53:02;165.80;;;159.80;;
52724;SDS011;38621;52.830;6.914;2024-03-02T08:55:28;220.70;;;213.35;;
52724;SDS011;38621;52.830;6.914;2024-03-02T08:57:54;199.43;;;192.73;;
52724;SDS011;38621;52.830;6.914;2024-03-02T09:00:21;107.28;;;103.72;;
52724;SDS011;38621;52.830;6.914;2024-03-02T09:02:47;97.95;;;94.65;;
52724;SDS011;38621;52.830;6.914;2024-03-02T09:05:13;92.32;;;89.25;;
52724;SDS011;38621;52.830;6.914;2024-03-02T09:07:38;153.93;;;148.85;;
52724;SDS011;38621;52.830;6.914;2024-03-02T09:10:07;145.57;;;140.77;;
52724;SDS011;38621;52.830;6.914;2024-03-02T09:12:33;44.25;;;42.65;;
52724;SDS011;38621;52.830;6.914;2024-03-02T09:15:00;54.90;;;53.00;;
52724;SDS011;38621;52.830;6.914;2024-03-02T09:17:28;51.92;;;50.15;;
52724;SDS011;38621;52.830;6.914;2024-03-02T09:19:54;68.50;;;66.22;;
52724;SDS011;38621;52.830;6.914;2024-03-02T09:22:19;62.80;;;60.50;;
52724;SDS011;38621;52.830;6.914;2024-03-02T09:24:45;55.13;;;53.10;;
52724;SDS011;38621;52.830;6.914;2024-03-02T09:27:11;61.05;;;59.00;;
52724;SDS011;38621;52.830;6.914;2024-03-02T09:29:37;58.42;;;56.35;;
52724;SDS011;38621;52.830;6.914;2024-03-02T09:32:04;79.93;;;77.22;;
52724;SDS011;38621;52.830;6.914;2024-03-02T09:34:30;66.25;;;63.97;;
52724;SDS011;38621;52.830;6.914;2024-03-02T09:36:56;62.97;;;60.85;;
52724;SDS011;38621;52.830;6.914;2024-03-02T09:39:22;68.18;;;65.88;;
52724;SDS011;38621;52.830;6.914;2024-03-02T09:41:50;69.43;;;67.10;;
52724;SDS011;38621;52.830;6.914;2024-03-02T09:44:16;95.20;;;91.97;;
52724;SDS011;38621;52.830;6.914;2024-03-02T09:46:42;84.28;;;81.47;;
52724;SDS011;38621;52.830;6.914;2024-03-02T09:49:09;70.97;;;68.63;;
52724;SDS011;38621;52.830;6.914;2024-03-02T09:51:36;102.57;;;99.20;;
52724;SDS011;38621;52.830;6.914;2024-03-02T09:54:02;76.63;;;74.07;;
52724;SDS011;38621;52.830;6.914;2024-03-02T09:56:29;63.22;;;61.08;;
52724;SDS011;38621;52.830;6.914;2024-03-02T09:58:54;63.10;;;60.90;;
52724;SDS011;38621;52.830;6.914;2024-03-02T10:01:20;65.55;;;63.25;;
52724;SDS011;38621;52.830;6.914;2024-03-02T10:03:46;63.95;;;61.80;;
52724;SDS011;38621;52.830;6.914;2024-03-02T10:06:24;75.70;;;73.15;;
52724;SDS011;38621;52.830;6.914;2024-03-02T10:08:52;78.43;;;75.72;;
52724;SDS011;38621;52.830;6.914;2024-03-02T10:11:36;22.67;;;21.58;;
52724;SDS011;38621;52.830;6.914;2024-03-02T10:14:07;71.82;;;69.30;;
52724;SDS011;38621;52.830;6.914;2024-03-02T10:16:36;11.02;;;10.52;;
52724;SDS011;38621;52.830;6.914;2024-03-02T10:21:48;16.52;;;15.75;;
52724;SDS011;38621;52.830;6.914;2024-03-02T10:24:17;11.38;;;10.77;;
52724;SDS011;38621;52.830;6.914;2024-03-02T10:26:44;12.55;;;11.90;;
52724;SDS011;38621;52.830;6.914;2024-03-02T10:29:10;31.60;;;30.42;;
52724;SDS011;38621;52.830;6.914;2024-03-02T10:31:37;11.98;;;11.30;;
52724;SDS011;38621;52.830;6.914;2024-03-02T10:34:03;11.95;;;11.40;;
52724;SDS011;38621;52.830;6.914;2024-03-02T10:36:29;11.65;;;11.05;;
52724;SDS011;38621;52.830;6.914;2024-03-02T10:38:58;10.98;;;10.48;;
52724;SDS011;38621;52.830;6.914;2024-03-02T10:41:24;14.02;;;13.43;;
52724;SDS011;38621;52.830;6.914;2024-03-02T10:43:55;15.57;;;14.77;;
52724;SDS011;38621;52.830;6.914;2024-03-02T10:46:29;13.77;;;13.23;;
52724;SDS011;38621;52.830;6.914;2024-03-02T10:48:59;15.88;;;14.98;;
52724;SDS011;38621;52.830;6.914;2024-03-02T10:51:26;16.33;;;15.63;;
52724;SDS011;38621;52.830;6.914;2024-03-02T10:53:54;10.40;;;9.82;;
52724;SDS011;38621;52.830;6.914;2024-03-02T10:56:30;14.35;;;13.75;;
52724;SDS011;38621;52.830;6.914;2024-03-02T11:01:41;51.83;;;49.50;;
52724;SDS011;38621;52.830;6.914;2024-03-02T11:04:09;19.50;;;18.63;;
52724;SDS011;38621;52.830;6.914;2024-03-02T11:06:37;13.30;;;12.70;;
52724;SDS011;38621;52.830;6.914;2024-03-02T11:09:07;12.45;;;11.75;;
52724;SDS011;38621;52.830;6.914;2024-03-02T11:11:36;13.82;;;13.13;;
52724;SDS011;38621;52.830;6.914;2024-03-02T11:14:05;11.10;;;10.60;;
52724;SDS011;38621;52.830;6.914;2024-03-02T11:16:36;13.88;;;13.27;;
52724;SDS011;38621;52.830;6.914;2024-03-02T11:19:10;13.18;;;12.52;;
52724;SDS011;38621;52.830;6.914;2024-03-02T11:21:38;12.85;;;12.25;;
52724;SDS011;38621;52.830;6.914;2024-03-02T11:26:46;10.85;;;10.10;;
52724;SDS011;38621;52.830;6.914;2024-03-02T11:32:00;9.80;;;9.30;;
52724;SDS011;38621;52.830;6.914;2024-03-02T11:34:30;10.75;;;10.20;;
52724;SDS011;38621;52.830;6.914;2024-03-02T11:36:57;12.35;;;11.85;;
52724;SDS011;38621;52.830;6.914;2024-03-02T11:39:25;11.65;;;11.15;;
52724;SDS011;38621;52.830;6.914;2024-03-02T11:41:51;11.95;;;11.35;;
52724;SDS011;38621;52.830;6.914;2024-03-02T11:44:17;19.30;;;18.50;;
52724;SDS011;38621;52.830;6.914;2024-03-02T11:46:52;16.95;;;16.25;;
52724;SDS011;38621;52.830;6.914;2024-03-02T11:49:38;10.10;;;9.60;;
52724;SDS011;38621;52.830;6.914;2024-03-02T11:52:08;10.45;;;9.95;;
52724;SDS011;38621;52.830;6.914;2024-03-02T11:54:36;10.15;;;9.52;;
52724;SDS011;38621;52.830;6.914;2024-03-02T11:57:06;10.98;;;10.35;;
52724;SDS011;38621;52.830;6.914;2024-03-02T11:59:33;37.45;;;36.15;;
52724;SDS011;38621;52.830;6.914;2024-03-02T12:01:59;46.83;;;44.88;;
52724;SDS011;38621;52.830;6.914;2024-03-02T12:04:25;18.67;;;17.88;;
52724;SDS011;38621;52.830;6.914;2024-03-02T12:06:55;11.95;;;11.35;;
52724;SDS011;38621;52.830;6.914;2024-03-02T12:09:24;47.42;;;45.72;;
52724;SDS011;38621;52.830;6.914;2024-03-02T12:12:07;26.10;;;25.02;;
52724;SDS011;38621;52.830;6.914;2024-03-02T12:14:35;15.50;;;14.60;;
52724;SDS011;38621;52.830;6.914;2024-03-02T12:17:02;15.95;;;15.25;;
52724;SDS011;38621;52.830;6.914;2024-03-02T12:19:28;16.60;;;15.90;;
52724;SDS011;38621;52.830;6.914;2024-03-02T12:21:58;58.65;;;56.60;;
52724;SDS011;38621;52.830;6.914;2024-03-02T12:24:26;20.30;;;19.50;;
52724;SDS011;38621;52.830;6.914;2024-03-02T12:26:53;24.10;;;23.13;;
52724;SDS011;38621;52.830;6.914;2024-03-02T12:29:20;15.10;;;14.40;;
52724;SDS011;38621;52.830;6.914;2024-03-02T12:31:50;12.98;;;12.25;;
52724;SDS011;38621;52.830;6.914;2024-03-02T12:34:17;16.75;;;15.95;;
52724;SDS011;38621;52.830;6.914;2024-03-02T12:36:45;16.33;;;15.73;;
52724;SDS011;38621;52.830;6.914;2024-03-02T12:39:14;20.60;;;19.75;;
52724;SDS011;38621;52.830;6.914;2024-03-02T12:41:41;36.78;;;35.42;;
52724;SDS011;38621;52.830;6.914;2024-03-02T12:44:07;20.30;;;19.55;;
52724;SDS011;38621;52.830;6.914;2024-03-02T12:46:33;29.65;;;28.55;;
52724;SDS011;38621;52.830;6.914;2024-03-02T12:49:10;31.85;;;30.67;;
52724;SDS011;38621;52.830;6.914;2024-03-02T12:51:38;17.05;;;16.25;;
52724;SDS011;38621;52.830;6.914;2024-03-02T12:54:10;25.92;;;24.92;;
52724;SDS011;38621;52.830;6.914;2024-03-02T12:56:40;30.67;;;29.48;;
52724;SDS011;38621;52.830;6.914;2024-03-02T12:59:10;28.83;;;27.83;;
52724;SDS011;38621;52.830;6.914;2024-03-02T13:01:52;24.02;;;23.15;;
52724;SDS011;38621;52.830;6.914;2024-03-02T13:04:23;19.02;;;18.27;;
52724;SDS011;38621;52.830;6.914;2024-03-02T13:06:49;27.13;;;26.15;;
52724;SDS011;38621;52.830;6.914;2024-03-02T13:09:16;18.27;;;17.52;;
52724;SDS011;38621;52.830;6.914;2024-03-02T13:11:42;26.75;;;25.85;;
52724;SDS011;38621;52.830;6.914;2024-03-02T13:14:10;21.20;;;20.40;;
52724;SDS011;38621;52.830;6.914;2024-03-02T13:16:39;21.67;;;20.88;;
52724;SDS011;38621;52.830;6.914;2024-03-02T13:19:08;28.85;;;27.75;;
52724;SDS011;38621;52.830;6.914;2024-03-02T13:21:36;52.10;;;50.25;;
52724;SDS011;38621;52.830;6.914;2024-03-02T13:24:03;28.90;;;27.85;;
52724;SDS011;38621;52.830;6.914;2024-03-02T13:26:29;25.30;;;24.35;;
52724;SDS011;38621;52.830;6.914;2024-03-02T13:28:55;29.30;;;28.20;;
52724;SDS011;38621;52.830;6.914;2024-03-02T13:31:21;35.35;;;34.05;;
52724;SDS011;38621;52.830;6.914;2024-03-02T13:33:47;24.25;;;23.33;;
52724;SDS011;38621;52.830;6.914;2024-03-02T13:36:13;23.58;;;22.65;;
52724;SDS011;38621;52.830;6.914;2024-03-02T13:38:39;15.05;;;14.45;;
52724;SDS011;38621;52.830;6.914;2024-03-02T13:41:04;17.25;;;16.58;;
52724;SDS011;38621;52.830;6.914;2024-03-02T13:43:30;22.02;;;21.23;;
52724;SDS011;38621;52.830;6.914;2024-03-02T13:45:57;31.55;;;30.45;;
52724;SDS011;38621;52.830;6.914;2024-03-02T13:48:24;18.55;;;17.75;;
52724;SDS011;38621;52.830;6.914;2024-03-02T13:50:52;26.25;;;25.27;;
52724;SDS011;38621;52.830;6.914;2024-03-02T13:53:18;19.30;;;18.60;;
52724;SDS011;38621;52.830;6.914;2024-03-02T13:55:45;17.35;;;16.65;;
52724;SDS011;38621;52.830;6.914;2024-03-02T13:58:10;25.17;;;24.27;;
52724;SDS011;38621;52.830;6.914;2024-03-02T14:00:37;21.45;;;20.58;;
52724;SDS011;38621;52.830;6.914;2024-03-02T14:03:06;18.38;;;17.60;;
52724;SDS011;38621;52.830;6.914;2024-03-02T14:05:31;23.30;;;22.30;;
52724;SDS011;38621;52.830;6.914;2024-03-02T14:07:57;15.18;;;14.48;;
52724;SDS011;38621;52.830;6.914;2024-03-02T14:10:25;11.85;;;11.35;;
52724;SDS011;38621;52.830;6.914;2024-03-02T14:12:52;24.42;;;23.48;;
52724;SDS011;38621;52.830;6.914;2024-03-02T14:15:18;32.50;;;31.27;;
52724;SDS011;38621;52.830;6.914;2024-03-02T14:17:43;41.03;;;39.58;;
52724;SDS011;38621;52.830;6.914;2024-03-02T14:20:09;85.60;;;82.75;;
52724;SDS011;38621;52.830;6.914;2024-03-02T14:22:37;36.65;;;35.33;;
52724;SDS011;38621;52.830;6.914;2024-03-02T14:25:03;36.25;;;34.95;;